sensor_id;sensor_type;location;lat;lon;timestamp;P1;durP1;ratioP1;P2;durP2;ratioP2
21120;SDS011;12519;43.318;21.898;2023-11-21T00:02:28;51.0;;;46.0;;
21120;SDS011;12519;43.318;21.898;2023-11-21T00:07:05;64.0;;;54.0;;
21120;SDS011;12519;43.318;21.898;2023-11-21T00:11:41;64.0;;;54.0;;
21120;SDS011;12519;43.318;21.898;2023-11-21T00:16:18;64.0;;;54.0;;
21120;SDS011;12519;43.318;21.898;2023-11-21T00:20:54;77.0;;;61.0;;
21120;SDS011;12519;43.318;21.898;2023-11-21T00:25:30;77.0;;;61.0;;
21120;SDS011;12519;43.318;21.898;2023-11-21T00:30:08;77.0;;;63.0;;
21120;SDS011;12519;43.318;21.898;2023-11-21T00:34:46;77.0;;;63.0;;
21120;SDS011;12519;43.318;21.898;2023-11-21T00:39:22;77.0;;;65.0;;
21120;SDS011;12519;43.318;21.898;2023-11-21T00:43:58;77.0;;;65.0;;
21120;SDS011;12519;43.318;21.898;2023-11-21T00:48:34;75.0;;;60.0;;
21120;SDS011;12519;43.318;21.898;2023-11-21T00:53:11;75.0;;;60.0;;
21120;SDS011;12519;43.318;21.898;2023-11-21T00:57:48;73.0;;;56.0;;
21120;SDS011;12519;43.318;21.898;2023-11-21T01:02:24;73.0;;;56.0;;
21120;SDS011;12519;43.318;21.898;2023-11-21T01:07:01;70.0;;;58.0;;
21120;SDS011;12519;43.318;21.898;2023-11-21T01:11:37;70.0;;;58.0;;
21120;SDS011;12519;43.318;21.898;2023-11-21T01:16:14;70.0;;;58.0;;
21120;SDS011;12519;43.318;21.898;2023-11-21T01:20:50;66.0;;;59.0;;
21120;SDS011;12519;43.318;21.898;2023-11-21T01:25:27;66.0;;;59.0;;
21120;SDS011;12519;43.318;21.898;2023-11-21T01:30:06;65.0;;;56.0;;
21120;SDS011;12519;43.318;21.898;2023-11-21T01:34:47;65.0;;;56.0;;
21120;SDS011;12519;43.318;21.898;2023-11-21T01:39:27;64.0;;;52.0;;
21120;SDS011;12519;43.318;21.898;2023-11-21T01:44:05;64.0;;;52.0;;
21120;SDS011;12519;43.318;21.898;2023-11-21T01:48:41;58.0;;;48.0;;
21120;SDS011;12519;43.318;21.898;2023-11-21T01:53:18;58.0;;;48.0;;
21120;SDS011;12519;43.318;21.898;2023-11-21T01:57:56;52.0;;;45.0;;
21120;SDS011;12519;43.318;21.898;2023-11-21T02:02:34;52.0;;;45.0;;
21120;SDS011;12519;43.318;21.898;2023-11-21T02:07:10;58.0;;;46.0;;
21120;SDS011;12519;43.318;21.898;2023-11-21T02:11:46;58.0;;;46.0;;
21120;SDS011;12519;43.318;21.898;2023-11-21T02:16:22;58.0;;;46.0;;
21120;SDS011;12519;43.318;21.898;2023-11-21T02:20:59;65.0;;;48.0;;
21120;SDS011;12519;43.318;21.898;2023-11-21T02:25:35;65.0;;;48.0;;
21120;SDS011;12519;43.318;21.898;2023-11-21T02:30:14;56.0;;;44.0;;
21120;SDS011;12519;43.318;21.898;2023-11-21T02:34:51;56.0;;;44.0;;
21120;SDS011;12519;43.318;21.898;2023-11-21T02:39:28;47.0;;;40.0;;
21120;SDS011;12519;43.318;21.898;2023-11-21T02:44:05;47.0;;;40.0;;
21120;SDS011;12519;43.318;21.898;2023-11-21T02:48:42;48.0;;;37.0;;
21120;SDS011;12519;43.318;21.898;2023-11-21T02:53:19;48.0;;;37.0;;
21120;SDS011;12519;43.318;21.898;2023-11-21T02:57:55;48.0;;;34.0;;
21120;SDS011;12519;43.318;21.898;2023-11-21T03:02:31;48.0;;;34.0;;
21120;SDS011;12519;43.318;21.898;2023-11-21T03:07:07;48.0;;;34.0;;
21120;SDS011;12519;43.318;21.898;2023-11-21T03:11:44;37.0;;;28.0;;
21120;SDS011;12519;43.318;21.898;2023-11-21T03:16:20;37.0;;;28.0;;
21120;SDS011;12519;43.318;21.898;2023-11-21T03:20:56;26.0;;;23.0;;
21120;SDS011;12519;43.318;21.898;2023-11-21T03:25:32;26.0;;;23.0;;
21120;SDS011;12519;43.318;21.898;2023-11-21T03:30:11;22.0;;;20.0;;
21120;SDS011;12519;43.318;21.898;2023-11-21T03:34:58;22.0;;;20.0;;
21120;SDS011;12519;43.318;21.898;2023-11-21T03:39:35;18.0;;;17.0;;
21120;SDS011;12519;43.318;21.898;2023-11-21T03:44:11;18.0;;;17.0;;
21120;SDS011;12519;43.318;21.898;2023-11-21T03:48:47;16.0;;;16.0;;
21120;SDS011;12519;43.318;21.898;2023-11-21T03:53:24;16.0;;;16.0;;
21120;SDS011;12519;43.318;21.898;2023-11-21T03:58:00;15.0;;;14.0;;
21120;SDS011;12519;43.318;21.898;2023-11-21T04:02:36;15.0;;;14.0;;
21120;SDS011;12519;43.318;21.898;2023-11-21T04:07:13;15.0;;;14.0;;
21120;SDS011;12519;43.318;21.898;2023-11-21T04:11:49;16.0;;;14.0;;
21120;SDS011;12519;43.318;21.898;2023-11-21T04:16:26;16.0;;;14.0;;
21120;SDS011;12519;43.318;21.898;2023-11-21T04:21:03;17.0;;;15.0;;
21120;SDS011;12519;43.318;21.898;2023-11-21T04:25:43;17.0;;;15.0;;
21120;SDS011;12519;43.318;21.898;2023-11-21T04:30:19;20.0;;;16.0;;
21120;SDS011;12519;43.318;21.898;2023-11-21T04:34:56;20.0;;;16.0;;
21120;SDS011;12519;43.318;21.898;2023-11-21T04:39:32;24.0;;;18.0;;
21120;SDS011;12519;43.318;21.898;2023-11-21T04:44:08;24.0;;;18.0;;
21120;SDS011;12519;43.318;21.898;2023-11-21T04:48:45;21.0;;;16.0;;
21120;SDS011;12519;43.318;21.898;2023-11-21T04:53:21;21.0;;;16.0;;
21120;SDS011;12519;43.318;21.898;2023-11-21T04:57:58;18.0;;;14.0;;
21120;SDS011;12519;43.318;21.898;2023-11-21T05:02:35;18.0;;;14.0;;
21120;SDS011;12519;43.318;21.898;2023-11-21T05:07:11;18.0;;;14.0;;
21120;SDS011;12519;43.318;21.898;2023-11-21T05:11:47;16.0;;;13.0;;
21120;SDS011;12519;43.318;21.898;2023-11-21T05:16:26;16.0;;;13.0;;
21120;SDS011;12519;43.318;21.898;2023-11-21T05:21:02;15.0;;;12.0;;
21120;SDS011;12519;43.318;21.898;2023-11-21T05:25:40;15.0;;;12.0;;
21120;SDS011;12519;43.318;21.898;2023-11-21T05:30:16;14.0;;;11.0;;
21120;SDS011;12519;43.318;21.898;2023-11-21T05:34:53;14.0;;;11.0;;
21120;SDS011;12519;43.318;21.898;2023-11-21T05:39:29;12.0;;;10.0;;
21120;SDS011;12519;43.318;21.898;2023-11-21T05:44:05;12.0;;;10.0;;
21120;SDS011;12519;43.318;21.898;2023-11-21T05:48:41;14.0;;;12.0;;
21120;SDS011;12519;43.318;21.898;2023-11-21T05:53:18;14.0;;;12.0;;
21120;SDS011;12519;43.318;21.898;2023-11-21T05:57:54;15.0;;;14.0;;
21120;SDS011;12519;43.318;21.898;2023-11-21T06:02:30;15.0;;;14.0;;
21120;SDS011;12519;43.318;21.898;2023-11-21T06:07:06;15.0;;;14.0;;
21120;SDS011;12519;43.318;21.898;2023-11-21T06:11:43;18.0;;;16.0;;
21120;SDS011;12519;43.318;21.898;2023-11-21T06:16:19;18.0;;;16.0;;
21120;SDS011;12519;43.318;21.898;2023-11-21T06:20:55;22.0;;;18.0;;
21120;SDS011;12519;43.318;21.898;2023-11-21T06:25:32;22.0;;;18.0;;
21120;SDS011;12519;43.318;21.898;2023-11-21T06:30:12;24.0;;;21.0;;
21120;SDS011;12519;43.318;21.898;2023-11-21T06:34:51;24.0;;;21.0;;
21120;SDS011;12519;43.318;21.898;2023-11-21T06:39:28;27.0;;;24.0;;
21120;SDS011;12519;43.318;21.898;2023-11-21T06:44:04;27.0;;;24.0;;
21120;SDS011;12519;43.318;21.898;2023-11-21T06:48:43;25.0;;;22.0;;
21120;SDS011;12519;43.318;21.898;2023-11-21T06:53:19;25.0;;;22.0;;
21120;SDS011;12519;43.318;21.898;2023-11-21T06:57:56;23.0;;;19.0;;
21120;SDS011;12519;43.318;21.898;2023-11-21T07:02:32;23.0;;;19.0;;
21120;SDS011;12519;43.318;21.898;2023-11-21T07:07:08;23.0;;;19.0;;
21120;SDS011;12519;43.318;21.898;2023-11-21T07:11:44;22.0;;;18.0;;
21120;SDS011;12519;43.318;21.898;2023-11-21T07:16:20;22.0;;;18.0;;
21120;SDS011;12519;43.318;21.898;2023-11-21T07:20:56;21.0;;;17.0;;
21120;SDS011;12519;43.318;21.898;2023-11-21T07:25:32;21.0;;;17.0;;
21120;SDS011;12519;43.318;21.898;2023-11-21T07:30:12;57.0;;;42.0;;
21120;SDS011;12519;43.318;21.898;2023-11-21T07:34:49;57.0;;;42.0;;
21120;SDS011;12519;43.318;21.898;2023-11-21T07:39:25;93.0;;;67.0;;
21120;SDS011;12519;43.318;21.898;2023-11-21T07:44:01;93.0;;;67.0;;
21120;SDS011;12519;43.318;21.898;2023-11-21T07:48:40;54.0;;;41.0;;
21120;SDS011;12519;43.318;21.898;2023-11-21T07:53:18;54.0;;;41.0;;
21120;SDS011;12519;43.318;21.898;2023-11-21T07:57:54;16.0;;;15.0;;
21120;SDS011;12519;43.318;21.898;2023-11-21T08:02:31;16.0;;;15.0;;
21120;SDS011;12519;43.318;21.898;2023-11-21T08:07:07;16.0;;;15.0;;
21120;SDS011;12519;43.318;21.898;2023-11-21T08:11:43;20.0;;;18.0;;
21120;SDS011;12519;43.318;21.898;2023-11-21T08:16:19;20.0;;;18.0;;
21120;SDS011;12519;43.318;21.898;2023-11-21T08:20:57;24.0;;;22.0;;
21120;SDS011;12519;43.318;21.898;2023-11-21T08:25:33;24.0;;;22.0;;
21120;SDS011;12519;43.318;21.898;2023-11-21T08:30:11;20.0;;;18.0;;
21120;SDS011;12519;43.318;21.898;2023-11-21T08:34:48;20.0;;;18.0;;
21120;SDS011;12519;43.318;21.898;2023-11-21T08:39:25;16.0;;;15.0;;
21120;SDS011;12519;43.318;21.898;2023-11-21T08:44:01;16.0;;;15.0;;
21120;SDS011;12519;43.318;21.898;2023-11-21T08:48:37;24.0;;;20.0;;
21120;SDS011;12519;43.318;21.898;2023-11-21T08:53:14;24.0;;;20.0;;
21120;SDS011;12519;43.318;21.898;2023-11-21T08:57:50;33.0;;;26.0;;
21120;SDS011;12519;43.318;21.898;2023-11-21T09:02:27;33.0;;;26.0;;
21120;SDS011;12519;43.318;21.898;2023-11-21T09:07:03;33.0;;;26.0;;
21120;SDS011;12519;43.318;21.898;2023-11-21T09:11:39;38.0;;;32.0;;
21120;SDS011;12519;43.318;21.898;2023-11-21T09:16:16;38.0;;;32.0;;
21120;SDS011;12519;43.318;21.898;2023-11-21T09:20:53;44.0;;;39.0;;
21120;SDS011;12519;43.318;21.898;2023-11-21T09:25:30;44.0;;;39.0;;
21120;SDS011;12519;43.318;21.898;2023-11-21T09:30:08;34.0;;;29.0;;
21120;SDS011;12519;43.318;21.898;2023-11-21T09:34:48;34.0;;;29.0;;
21120;SDS011;12519;43.318;21.898;2023-11-21T09:39:25;25.0;;;19.0;;
21120;SDS011;12519;43.318;21.898;2023-11-21T09:44:09;25.0;;;19.0;;
21120;SDS011;12519;43.318;21.898;2023-11-21T09:48:53;20.0;;;16.0;;
21120;SDS011;12519;43.318;21.898;2023-11-21T09:53:36;20.0;;;16.0;;
21120;SDS011;12519;43.318;21.898;2023-11-21T09:58:14;15.0;;;14.0;;
21120;SDS011;12519;43.318;21.898;2023-11-21T10:02:53;15.0;;;14.0;;
21120;SDS011;12519;43.318;21.898;2023-11-21T10:07:35;15.0;;;14.0;;
21120;SDS011;12519;43.318;21.898;2023-11-21T10:12:16;34.0;;;25.0;;
21120;SDS011;12519;43.318;21.898;2023-11-21T10:16:55;34.0;;;25.0;;
21120;SDS011;12519;43.318;21.898;2023-11-21T10:21:34;53.0;;;36.0;;
21120;SDS011;12519;43.318;21.898;2023-11-21T10:26:13;53.0;;;36.0;;
21120;SDS011;12519;43.318;21.898;2023-11-21T10:30:51;50.0;;;40.0;;
21120;SDS011;12519;43.318;21.898;2023-11-21T10:35:43;50.0;;;40.0;;
21120;SDS011;12519;43.318;21.898;2023-11-21T10:40:22;47.0;;;44.0;;
21120;SDS011;12519;43.318;21.898;2023-11-21T10:44:59;47.0;;;44.0;;
21120;SDS011;12519;43.318;21.898;2023-11-21T10:49:37;56.0;;;49.0;;
21120;SDS011;12519;43.318;21.898;2023-11-21T10:54:19;56.0;;;49.0;;
21120;SDS011;12519;43.318;21.898;2023-11-21T10:58:57;64.0;;;54.0;;
21120;SDS011;12519;43.318;21.898;2023-11-21T11:03:36;64.0;;;54.0;;
21120;SDS011;12519;43.318;21.898;2023-11-21T11:08:16;66.0;;;52.0;;
21120;SDS011;12519;43.318;21.898;2023-11-21T11:12:58;66.0;;;52.0;;
21120;SDS011;12519;43.318;21.898;2023-11-21T11:17:38;66.0;;;52.0;;
21120;SDS011;12519;43.318;21.898;2023-11-21T11:22:37;67.0;;;51.0;;
21120;SDS011;12519;43.318;21.898;2023-11-21T11:27:44;67.0;;;51.0;;
21120;SDS011;12519;43.318;21.898;2023-11-21T11:32:58;60.0;;;49.0;;
21120;SDS011;12519;43.318;21.898;2023-11-21T11:38:12;53.0;;;47.0;;
21120;SDS011;12519;43.318;21.898;2023-11-21T11:43:06;53.0;;;47.0;;
21120;SDS011;12519;43.318;21.898;2023-11-21T11:47:43;53.0;;;47.0;;
21120;SDS011;12519;43.318;21.898;2023-11-21T11:52:42;54.0;;;48.0;;
21120;SDS011;12519;43.318;21.898;2023-11-21T11:57:24;54.0;;;48.0;;
21120;SDS011;12519;43.318;21.898;2023-11-21T12:02:04;55.0;;;48.0;;
21120;SDS011;12519;43.318;21.898;2023-11-21T12:06:42;55.0;;;48.0;;
21120;SDS011;12519;43.318;21.898;2023-11-21T12:11:19;60.0;;;49.0;;
21120;SDS011;12519;43.318;21.898;2023-11-21T12:15:56;60.0;;;49.0;;
21120;SDS011;12519;43.318;21.898;2023-11-21T12:20:33;65.0;;;50.0;;
21120;SDS011;12519;43.318;21.898;2023-11-21T12:25:10;65.0;;;50.0;;
21120;SDS011;12519;43.318;21.898;2023-11-21T12:29:46;64.0;;;52.0;;
21120;SDS011;12519;43.318;21.898;2023-11-21T12:34:23;64.0;;;52.0;;
21120;SDS011;12519;43.318;21.898;2023-11-21T12:39:00;63.0;;;53.0;;
21120;SDS011;12519;43.318;21.898;2023-11-21T12:43:37;63.0;;;53.0;;
21120;SDS011;12519;43.318;21.898;2023-11-21T12:48:14;63.0;;;53.0;;
21120;SDS011;12519;43.318;21.898;2023-11-21T12:52:52;56.0;;;50.0;;
21120;SDS011;12519;43.318;21.898;2023-11-21T12:57:29;56.0;;;50.0;;
21120;SDS011;12519;43.318;21.898;2023-11-21T13:02:05;50.0;;;46.0;;
21120;SDS011;12519;43.318;21.898;2023-11-21T13:06:42;50.0;;;46.0;;
21120;SDS011;12519;43.318;21.898;2023-11-21T13:11:18;50.0;;;45.0;;
21120;SDS011;12519;43.318;21.898;2023-11-21T13:15:59;50.0;;;45.0;;
21120;SDS011;12519;43.318;21.898;2023-11-21T13:20:41;49.0;;;44.0;;
21120;SDS011;12519;43.318;21.898;2023-11-21T13:25:19;49.0;;;44.0;;
21120;SDS011;12519;43.318;21.898;2023-11-21T13:29:57;44.0;;;40.0;;
21120;SDS011;12519;43.318;21.898;2023-11-21T13:34:33;44.0;;;40.0;;
21120;SDS011;12519;43.318;21.898;2023-11-21T13:39:09;40.0;;;37.0;;
21120;SDS011;12519;43.318;21.898;2023-11-21T13:43:45;40.0;;;37.0;;
21120;SDS011;12519;43.318;21.898;2023-11-21T13:48:22;40.0;;;37.0;;
21120;SDS011;12519;43.318;21.898;2023-11-21T13:52:58;31.0;;;29.0;;
21120;SDS011;12519;43.318;21.898;2023-11-21T13:57:35;31.0;;;29.0;;
21120;SDS011;12519;43.318;21.898;2023-11-21T14:02:11;22.0;;;21.0;;
21120;SDS011;12519;43.318;21.898;2023-11-21T14:06:51;22.0;;;21.0;;
21120;SDS011;12519;43.318;21.898;2023-11-21T14:11:27;20.0;;;18.0;;
21120;SDS011;12519;43.318;21.898;2023-11-21T14:16:05;20.0;;;18.0;;
21120;SDS011;12519;43.318;21.898;2023-11-21T14:20:43;17.0;;;16.0;;
21120;SDS011;12519;43.318;21.898;2023-11-21T14:25:20;17.0;;;16.0;;
21120;SDS011;12519;43.318;21.898;2023-11-21T14:29:56;24.0;;;22.0;;
21120;SDS011;12519;43.318;21.898;2023-11-21T14:34:32;24.0;;;22.0;;
21120;SDS011;12519;43.318;21.898;2023-11-21T14:39:09;31.0;;;29.0;;
21120;SDS011;12519;43.318;21.898;2023-11-21T14:43:46;31.0;;;29.0;;
21120;SDS011;12519;43.318;21.898;2023-11-21T14:48:22;31.0;;;29.0;;
21120;SDS011;12519;43.318;21.898;2023-11-21T14:52:58;30.0;;;28.0;;
21120;SDS011;12519;43.318;21.898;2023-11-21T14:57:35;30.0;;;28.0;;
21120;SDS011;12519;43.318;21.898;2023-11-21T15:02:11;30.0;;;27.0;;
21120;SDS011;12519;43.318;21.898;2023-11-21T15:06:47;30.0;;;27.0;;
21120;SDS011;12519;43.318;21.898;2023-11-21T15:11:23;42.0;;;38.0;;
21120;SDS011;12519;43.318;21.898;2023-11-21T15:15:59;42.0;;;38.0;;
21120;SDS011;12519;43.318;21.898;2023-11-21T15:20:36;54.0;;;50.0;;
21120;SDS011;12519;43.318;21.898;2023-11-21T15:25:12;54.0;;;50.0;;
21120;SDS011;12519;43.318;21.898;2023-11-21T15:29:49;70.0;;;62.0;;
21120;SDS011;12519;43.318;21.898;2023-11-21T15:34:26;70.0;;;62.0;;
21120;SDS011;12519;43.318;21.898;2023-11-21T15:39:03;85.0;;;73.0;;
21120;SDS011;12519;43.318;21.898;2023-11-21T15:43:40;85.0;;;73.0;;
21120;SDS011;12519;43.318;21.898;2023-11-21T15:48:16;85.0;;;73.0;;
21120;SDS011;12519;43.318;21.898;2023-11-21T15:52:52;69.0;;;60.0;;
21120;SDS011;12519;43.318;21.898;2023-11-21T15:57:29;69.0;;;60.0;;
21120;SDS011;12519;43.318;21.898;2023-11-21T16:02:05;53.0;;;47.0;;
21120;SDS011;12519;43.318;21.898;2023-11-21T16:06:41;53.0;;;47.0;;
21120;SDS011;12519;43.318;21.898;2023-11-21T16:11:18;50.0;;;44.0;;
21120;SDS011;12519;43.318;21.898;2023-11-21T16:15:54;50.0;;;44.0;;
21120;SDS011;12519;43.318;21.898;2023-11-21T16:20:30;46.0;;;40.0;;
21120;SDS011;12519;43.318;21.898;2023-11-21T16:25:08;46.0;;;40.0;;
21120;SDS011;12519;43.318;21.898;2023-11-21T16:29:45;44.0;;;38.0;;
21120;SDS011;12519;43.318;21.898;2023-11-21T16:34:21;44.0;;;38.0;;
21120;SDS011;12519;43.318;21.898;2023-11-21T16:38:58;41.0;;;37.0;;
21120;SDS011;12519;43.318;21.898;2023-11-21T16:43:34;41.0;;;37.0;;
21120;SDS011;12519;43.318;21.898;2023-11-21T16:48:10;41.0;;;37.0;;
21120;SDS011;12519;43.318;21.898;2023-11-21T16:52:46;40.0;;;36.0;;
21120;SDS011;12519;43.318;21.898;2023-11-21T16:57:22;40.0;;;36.0;;
21120;SDS011;12519;43.318;21.898;2023-11-21T17:01:58;40.0;;;35.0;;
21120;SDS011;12519;43.318;21.898;2023-11-21T17:06:35;40.0;;;35.0;;
21120;SDS011;12519;43.318;21.898;2023-11-21T17:11:11;48.0;;;42.0;;
21120;SDS011;12519;43.318;21.898;2023-11-21T17:15:47;48.0;;;42.0;;
21120;SDS011;12519;43.318;21.898;2023-11-21T17:20:24;56.0;;;50.0;;
21120;SDS011;12519;43.318;21.898;2023-11-21T17:25:00;56.0;;;50.0;;
21120;SDS011;12519;43.318;21.898;2023-11-21T17:29:36;62.0;;;54.0;;
21120;SDS011;12519;43.318;21.898;2023-11-21T17:34:13;62.0;;;54.0;;
21120;SDS011;12519;43.318;21.898;2023-11-21T17:38:50;62.0;;;54.0;;
21120;SDS011;12519;43.318;21.898;2023-11-21T17:43:27;69.0;;;59.0;;
21120;SDS011;12519;43.318;21.898;2023-11-21T17:48:04;69.0;;;59.0;;
21120;SDS011;12519;43.318;21.898;2023-11-21T17:52:41;81.0;;;70.0;;
21120;SDS011;12519;43.318;21.898;2023-11-21T17:57:18;81.0;;;70.0;;
21120;SDS011;12519;43.318;21.898;2023-11-21T18:01:55;93.0;;;80.0;;
21120;SDS011;12519;43.318;21.898;2023-11-21T18:06:31;93.0;;;80.0;;
21120;SDS011;12519;43.318;21.898;2023-11-21T18:11:08;88.0;;;74.0;;
21120;SDS011;12519;43.318;21.898;2023-11-21T18:15:45;88.0;;;74.0;;
21120;SDS011;12519;43.318;21.898;2023-11-21T18:20:21;82.0;;;69.0;;
21120;SDS011;12519;43.318;21.898;2023-11-21T18:24:58;82.0;;;69.0;;
21120;SDS011;12519;43.318;21.898;2023-11-21T18:29:35;76.0;;;62.0;;
21120;SDS011;12519;43.318;21.898;2023-11-21T18:34:12;76.0;;;62.0;;
21120;SDS011;12519;43.318;21.898;2023-11-21T18:38:48;76.0;;;62.0;;
21120;SDS011;12519;43.318;21.898;2023-11-21T18:43:24;69.0;;;56.0;;
21120;SDS011;12519;43.318;21.898;2023-11-21T18:48:01;69.0;;;56.0;;
21120;SDS011;12519;43.318;21.898;2023-11-21T18:52:37;74.0;;;60.0;;
21120;SDS011;12519;43.318;21.898;2023-11-21T18:57:14;74.0;;;60.0;;
21120;SDS011;12519;43.318;21.898;2023-11-21T19:01:50;80.0;;;64.0;;
21120;SDS011;12519;43.318;21.898;2023-11-21T19:06:28;80.0;;;64.0;;
21120;SDS011;12519;43.318;21.898;2023-11-21T19:11:04;60.0;;;48.0;;
21120;SDS011;12519;43.318;21.898;2023-11-21T19:15:41;60.0;;;48.0;;
21120;SDS011;12519;43.318;21.898;2023-11-21T19:20:17;40.0;;;32.0;;
21120;SDS011;12519;43.318;21.898;2023-11-21T19:24:53;40.0;;;32.0;;
21120;SDS011;12519;43.318;21.898;2023-11-21T19:29:29;38.0;;;32.0;;
21120;SDS011;12519;43.318;21.898;2023-11-21T19:34:06;38.0;;;32.0;;
21120;SDS011;12519;43.318;21.898;2023-11-21T19:38:43;38.0;;;32.0;;
21120;SDS011;12519;43.318;21.898;2023-11-21T19:43:20;36.0;;;31.0;;
21120;SDS011;12519;43.318;21.898;2023-11-21T19:47:57;36.0;;;31.0;;
21120;SDS011;12519;43.318;21.898;2023-11-21T19:52:33;38.0;;;35.0;;
21120;SDS011;12519;43.318;21.898;2023-11-21T19:57:10;38.0;;;35.0;;
21120;SDS011;12519;43.318;21.898;2023-11-21T20:01:46;41.0;;;39.0;;
21120;SDS011;12519;43.318;21.898;2023-11-21T20:06:22;41.0;;;39.0;;
21120;SDS011;12519;43.318;21.898;2023-11-21T20:10:59;42.0;;;37.0;;
21120;SDS011;12519;43.318;21.898;2023-11-21T20:15:35;42.0;;;37.0;;
21120;SDS011;12519;43.318;21.898;2023-11-21T20:20:13;42.0;;;35.0;;
21120;SDS011;12519;43.318;21.898;2023-11-21T20:24:49;42.0;;;35.0;;
21120;SDS011;12519;43.318;21.898;2023-11-21T20:29:25;44.0;;;39.0;;
21120;SDS011;12519;43.318;21.898;2023-11-21T20:34:01;44.0;;;39.0;;
21120;SDS011;12519;43.318;21.898;2023-11-21T20:38:38;44.0;;;39.0;;
21120;SDS011;12519;43.318;21.898;2023-11-21T20:43:14;47.0;;;43.0;;
21120;SDS011;12519;43.318;21.898;2023-11-21T20:47:51;47.0;;;43.0;;
21120;SDS011;12519;43.318;21.898;2023-11-21T20:52:27;58.0;;;44.0;;
21120;SDS011;12519;43.318;21.898;2023-11-21T20:57:04;58.0;;;44.0;;
21120;SDS011;12519;43.318;21.898;2023-11-21T21:01:41;68.0;;;46.0;;
21120;SDS011;12519;43.318;21.898;2023-11-21T21:06:18;68.0;;;46.0;;
21120;SDS011;12519;43.318;21.898;2023-11-21T21:10:54;60.0;;;45.0;;
21120;SDS011;12519;43.318;21.898;2023-11-21T21:15:31;60.0;;;45.0;;
21120;SDS011;12519;43.318;21.898;2023-11-21T21:20:09;53.0;;;44.0;;
21120;SDS011;12519;43.318;21.898;2023-11-21T21:24:46;53.0;;;44.0;;
21120;SDS011;12519;43.318;21.898;2023-11-21T21:29:23;53.0;;;44.0;;
21120;SDS011;12519;43.318;21.898;2023-11-21T21:33:59;48.0;;;41.0;;
21120;SDS011;12519;43.318;21.898;2023-11-21T21:38:35;48.0;;;41.0;;
21120;SDS011;12519;43.318;21.898;2023-11-21T21:43:12;44.0;;;38.0;;
21120;SDS011;12519;43.318;21.898;2023-11-21T21:47:48;44.0;;;38.0;;
21120;SDS011;12519;43.318;21.898;2023-11-21T21:52:34;38.0;;;33.0;;
21120;SDS011;12519;43.318;21.898;2023-11-21T21:57:12;38.0;;;33.0;;
21120;SDS011;12519;43.318;21.898;2023-11-21T22:01:48;33.0;;;28.0;;
21120;SDS011;12519;43.318;21.898;2023-11-21T22:06:24;33.0;;;28.0;;
21120;SDS011;12519;43.318;21.898;2023-11-21T22:11:00;32.0;;;26.0;;
21120;SDS011;12519;43.318;21.898;2023-11-21T22:15:38;32.0;;;26.0;;
21120;SDS011;12519;43.318;21.898;2023-11-21T22:20:14;32.0;;;23.0;;
21120;SDS011;12519;43.318;21.898;2023-11-21T22:24:50;32.0;;;23.0;;
21120;SDS011;12519;43.318;21.898;2023-11-21T22:29:27;32.0;;;23.0;;
21120;SDS011;12519;43.318;21.898;2023-11-21T22:34:03;32.0;;;24.0;;
21120;SDS011;12519;43.318;21.898;2023-11-21T22:38:40;32.0;;;24.0;;
21120;SDS011;12519;43.318;21.898;2023-11-21T22:43:18;33.0;;;25.0;;
21120;SDS011;12519;43.318;21.898;2023-11-21T22:47:54;33.0;;;25.0;;
21120;SDS011;12519;43.318;21.898;2023-11-21T22:52:32;32.0;;;25.0;;
21120;SDS011;12519;43.318;21.898;2023-11-21T22:57:09;32.0;;;25.0;;
21120;SDS011;12519;43.318;21.898;2023-11-21T23:01:46;31.0;;;25.0;;
21120;SDS011;12519;43.318;21.898;2023-11-21T23:06:23;31.0;;;25.0;;
21120;SDS011;12519;43.318;21.898;2023-11-21T23:10:59;30.0;;;24.0;;
21120;SDS011;12519;43.318;21.898;2023-11-21T23:15:35;30.0;;;24.0;;
21120;SDS011;12519;43.318;21.898;2023-11-21T23:20:12;28.0;;;24.0;;
21120;SDS011;12519;43.318;21.898;2023-11-21T23:24:48;28.0;;;24.0;;
21120;SDS011;12519;43.318;21.898;2023-11-21T23:29:25;28.0;;;24.0;;
21120;SDS011;12519;43.318;21.898;2023-11-21T23:34:02;30.0;;;28.0;;
21120;SDS011;12519;43.318;21.898;2023-11-21T23:38:39;30.0;;;28.0;;
21120;SDS011;12519;43.318;21.898;2023-11-21T23:43:15;32.0;;;31.0;;
21120;SDS011;12519;43.318;21.898;2023-11-21T23:47:52;32.0;;;31.0;;
21120;SDS011;12519;43.318;21.898;2023-11-21T23:52:30;28.0;;;26.0;;
21120;SDS011;12519;43.318;21.898;2023-11-21T23:57:06;28.0;;;26.0;;
